sensor_id;sensor_type;location;lat;lon;timestamp;P1;durP1;ratioP1;P2;durP2;ratioP2
49109;SDS011;34921;52.320;16.142;2023-02-12T00:01:24;24.18;;;9.80;;
49109;SDS011;34921;52.320;16.142;2023-02-12T00:03:52;24.90;;;10.18;;
49109;SDS011;34921;52.320;16.142;2023-02-12T00:06:20;24.35;;;8.73;;
49109;SDS011;34921;52.320;16.142;2023-02-12T00:08:49;20.92;;;8.48;;
49109;SDS011;34921;52.320;16.142;2023-02-12T00:11:19;28.50;;;10.23;;
49109;SDS011;34921;52.320;16.142;2023-02-12T00:13:53;31.30;;;12.43;;
49109;SDS011;34921;52.320;16.142;2023-02-12T00:16:23;25.52;;;11.28;;
49109;SDS011;34921;52.320;16.142;2023-02-12T00:18:53;24.52;;;9.03;;
49109;SDS011;34921;52.320;16.142;2023-02-12T00:21:23;24.47;;;10.30;;
49109;SDS011;34921;52.320;16.142;2023-02-12T00:23:52;22.40;;;9.75;;
49109;SDS011;34921;52.320;16.142;2023-02-12T00:26:20;19.12;;;8.70;;
49109;SDS011;34921;52.320;16.142;2023-02-12T00:28:49;18.80;;;7.90;;
49109;SDS011;34921;52.320;16.142;2023-02-12T00:31:19;17.23;;;6.80;;
49109;SDS011;34921;52.320;16.142;2023-02-12T00:33:51;18.95;;;7.50;;
49109;SDS011;34921;52.320;16.142;2023-02-12T00:36:21;19.67;;;7.05;;
49109;SDS011;34921;52.320;16.142;2023-02-12T00:38:51;19.82;;;6.75;;
49109;SDS011;34921;52.320;16.142;2023-02-12T00:43:49;18.65;;;6.10;;
49109;SDS011;34921;52.320;16.142;2023-02-12T00:46:17;17.48;;;6.42;;
49109;SDS011;34921;52.320;16.142;2023-02-12T00:48:45;12.07;;;5.80;;
49109;SDS011;34921;52.320;16.142;2023-02-12T00:51:13;13.62;;;5.75;;
49109;SDS011;34921;52.320;16.142;2023-02-12T00:53:41;12.35;;;5.30;;
49109;SDS011;34921;52.320;16.142;2023-02-12T00:56:09;13.80;;;4.83;;
49109;SDS011;34921;52.320;16.142;2023-02-12T00:58:37;11.20;;;4.85;;
49109;SDS011;34921;52.320;16.142;2023-02-12T01:01:05;12.20;;;5.22;;
49109;SDS011;34921;52.320;16.142;2023-02-12T01:03:33;13.10;;;5.55;;
49109;SDS011;34921;52.320;16.142;2023-02-12T01:06:01;12.37;;;5.10;;
49109;SDS011;34921;52.320;16.142;2023-02-12T01:08:30;9.73;;;4.57;;
49109;SDS011;34921;52.320;16.142;2023-02-12T01:10:59;11.33;;;5.42;;
49109;SDS011;34921;52.320;16.142;2023-02-12T01:13:29;7.85;;;3.98;;
49109;SDS011;34921;52.320;16.142;2023-02-12T01:16:18;9.30;;;5.37;;
49109;SDS011;34921;52.320;16.142;2023-02-12T01:18:48;13.33;;;5.50;;
49109;SDS011;34921;52.320;16.142;2023-02-12T01:21:18;9.23;;;5.30;;
49109;SDS011;34921;52.320;16.142;2023-02-12T01:23:57;12.73;;;6.62;;
49109;SDS011;34921;52.320;16.142;2023-02-12T01:26:25;13.98;;;6.83;;
49109;SDS011;34921;52.320;16.142;2023-02-12T01:28:58;14.87;;;6.77;;
49109;SDS011;34921;52.320;16.142;2023-02-12T01:31:29;13.05;;;6.28;;
49109;SDS011;34921;52.320;16.142;2023-02-12T01:33:59;16.85;;;7.17;;
49109;SDS011;34921;52.320;16.142;2023-02-12T01:36:28;14.30;;;7.12;;
49109;SDS011;34921;52.320;16.142;2023-02-12T01:38:57;15.55;;;7.45;;
49109;SDS011;34921;52.320;16.142;2023-02-12T01:41:26;14.18;;;6.58;;
49109;SDS011;34921;52.320;16.142;2023-02-12T01:44:13;14.78;;;7.00;;
49109;SDS011;34921;52.320;16.142;2023-02-12T01:46:59;21.37;;;8.83;;
49109;SDS011;34921;52.320;16.142;2023-02-12T01:49:39;18.23;;;7.50;;
49109;SDS011;34921;52.320;16.142;2023-02-12T01:52:13;24.87;;;10.55;;
49109;SDS011;34921;52.320;16.142;2023-02-12T01:54:47;17.80;;;8.35;;
49109;SDS011;34921;52.320;16.142;2023-02-12T01:57:15;21.50;;;9.10;;
49109;SDS011;34921;52.320;16.142;2023-02-12T01:59:44;23.07;;;9.58;;
49109;SDS011;34921;52.320;16.142;2023-02-12T02:02:15;20.75;;;10.20;;
49109;SDS011;34921;52.320;16.142;2023-02-12T02:04:45;21.33;;;10.40;;
49109;SDS011;34921;52.320;16.142;2023-02-12T02:07:15;22.95;;;10.65;;
49109;SDS011;34921;52.320;16.142;2023-02-12T02:09:43;33.00;;;13.55;;
49109;SDS011;34921;52.320;16.142;2023-02-12T02:12:11;38.40;;;14.53;;
49109;SDS011;34921;52.320;16.142;2023-02-12T02:14:58;31.80;;;13.10;;
49109;SDS011;34921;52.320;16.142;2023-02-12T02:26:27;36.88;;;18.00;;
49109;SDS011;34921;52.320;16.142;2023-02-12T02:34:39;51.70;;;24.85;;
49109;SDS011;34921;52.320;16.142;2023-02-12T02:37:16;52.85;;;25.80;;
49109;SDS011;34921;52.320;16.142;2023-02-12T02:39:51;55.58;;;25.45;;
49109;SDS011;34921;52.320;16.142;2023-02-12T02:42:57;48.85;;;23.20;;
49109;SDS011;34921;52.320;16.142;2023-02-12T02:45:40;49.75;;;24.72;;
49109;SDS011;34921;52.320;16.142;2023-02-12T02:50:51;74.27;;;33.25;;
49109;SDS011;34921;52.320;16.142;2023-02-12T02:53:27;72.03;;;31.70;;
49109;SDS011;34921;52.320;16.142;2023-02-12T02:55:58;108.80;;;37.73;;
49109;SDS011;34921;52.320;16.142;2023-02-12T02:58:36;97.57;;;37.55;;
49109;SDS011;34921;52.320;16.142;2023-02-12T03:01:12;105.60;;;36.73;;
49109;SDS011;34921;52.320;16.142;2023-02-12T03:04:01;110.00;;;38.10;;
49109;SDS011;34921;52.320;16.142;2023-02-12T03:09:25;93.22;;;34.13;;
49109;SDS011;34921;52.320;16.142;2023-02-12T03:11:57;69.58;;;28.07;;
49109;SDS011;34921;52.320;16.142;2023-02-12T03:14:28;71.42;;;30.10;;
49109;SDS011;34921;52.320;16.142;2023-02-12T03:17:12;62.65;;;25.68;;
49109;SDS011;34921;52.320;16.142;2023-02-12T03:22:15;59.25;;;25.35;;
49109;SDS011;34921;52.320;16.142;2023-02-12T03:27:17;52.65;;;23.77;;
49109;SDS011;34921;52.320;16.142;2023-02-12T03:29:51;37.45;;;18.52;;
49109;SDS011;34921;52.320;16.142;2023-02-12T03:37:28;33.92;;;14.73;;
49109;SDS011;34921;52.320;16.142;2023-02-12T03:53:51;22.20;;;8.40;;
49109;SDS011;34921;52.320;16.142;2023-02-12T03:56:31;19.23;;;7.67;;
49109;SDS011;34921;52.320;16.142;2023-02-12T03:59:09;19.37;;;8.73;;
49109;SDS011;34921;52.320;16.142;2023-02-12T04:01:37;23.42;;;8.50;;
49109;SDS011;34921;52.320;16.142;2023-02-12T04:04:06;17.70;;;8.18;;
49109;SDS011;34921;52.320;16.142;2023-02-12T04:06:35;19.67;;;7.85;;
49109;SDS011;34921;52.320;16.142;2023-02-12T04:09:04;17.30;;;7.60;;
49109;SDS011;34921;52.320;16.142;2023-02-12T04:14:24;22.00;;;7.92;;
49109;SDS011;34921;52.320;16.142;2023-02-12T04:16:59;24.23;;;8.55;;
49109;SDS011;34921;52.320;16.142;2023-02-12T04:27:44;23.15;;;7.95;;
49109;SDS011;34921;52.320;16.142;2023-02-12T04:30:25;24.40;;;8.48;;
49109;SDS011;34921;52.320;16.142;2023-02-12T04:33:03;22.73;;;8.35;;
49109;SDS011;34921;52.320;16.142;2023-02-12T04:35:36;24.30;;;8.63;;
49109;SDS011;34921;52.320;16.142;2023-02-12T04:38:08;19.35;;;8.40;;
49109;SDS011;34921;52.320;16.142;2023-02-12T04:40:39;23.40;;;8.65;;
49109;SDS011;34921;52.320;16.142;2023-02-12T04:43:08;18.13;;;7.13;;
49109;SDS011;34921;52.320;16.142;2023-02-12T04:45:37;20.88;;;8.35;;
49109;SDS011;34921;52.320;16.142;2023-02-12T04:48:05;19.73;;;7.78;;
49109;SDS011;34921;52.320;16.142;2023-02-12T04:50:36;21.40;;;8.13;;
49109;SDS011;34921;52.320;16.142;2023-02-12T04:53:06;22.85;;;9.03;;
49109;SDS011;34921;52.320;16.142;2023-02-12T04:55:35;21.40;;;8.95;;
49109;SDS011;34921;52.320;16.142;2023-02-12T04:58:03;22.48;;;8.73;;
49109;SDS011;34921;52.320;16.142;2023-02-12T05:00:32;20.92;;;8.33;;
49109;SDS011;34921;52.320;16.142;2023-02-12T05:03:00;19.75;;;8.73;;
49109;SDS011;34921;52.320;16.142;2023-02-12T05:05:28;30.85;;;12.63;;
49109;SDS011;34921;52.320;16.142;2023-02-12T05:07:56;45.17;;;19.82;;
49109;SDS011;34921;52.320;16.142;2023-02-12T05:10:24;42.38;;;19.52;;
49109;SDS011;34921;52.320;16.142;2023-02-12T05:12:52;47.05;;;19.67;;
49109;SDS011;34921;52.320;16.142;2023-02-12T05:15:21;42.70;;;20.27;;
49109;SDS011;34921;52.320;16.142;2023-02-12T05:17:49;75.00;;;33.10;;
49109;SDS011;34921;52.320;16.142;2023-02-12T05:20:17;65.25;;;30.02;;
49109;SDS011;34921;52.320;16.142;2023-02-12T05:22:45;69.82;;;31.27;;
49109;SDS011;34921;52.320;16.142;2023-02-12T05:25:13;104.75;;;48.00;;
49109;SDS011;34921;52.320;16.142;2023-02-12T05:27:41;112.40;;;51.60;;
49109;SDS011;34921;52.320;16.142;2023-02-12T05:30:09;103.25;;;45.70;;
49109;SDS011;34921;52.320;16.142;2023-02-12T05:32:37;54.98;;;26.62;;
49109;SDS011;34921;52.320;16.142;2023-02-12T05:35:05;67.60;;;34.30;;
49109;SDS011;34921;52.320;16.142;2023-02-12T05:37:34;66.07;;;33.92;;
49109;SDS011;34921;52.320;16.142;2023-02-12T05:40:04;65.70;;;34.88;;
49109;SDS011;34921;52.320;16.142;2023-02-12T05:42:33;61.57;;;33.10;;
49109;SDS011;34921;52.320;16.142;2023-02-12T05:45:01;50.38;;;28.10;;
49109;SDS011;34921;52.320;16.142;2023-02-12T05:47:28;50.67;;;27.37;;
49109;SDS011;34921;52.320;16.142;2023-02-12T05:49:56;49.70;;;26.60;;
49109;SDS011;34921;52.320;16.142;2023-02-12T05:52:24;46.77;;;25.50;;
49109;SDS011;34921;52.320;16.142;2023-02-12T05:54:52;41.90;;;21.57;;
49109;SDS011;34921;52.320;16.142;2023-02-12T05:57:20;37.55;;;19.62;;
49109;SDS011;34921;52.320;16.142;2023-02-12T05:59:48;31.15;;;17.02;;
49109;SDS011;34921;52.320;16.142;2023-02-12T06:02:16;24.90;;;13.40;;
49109;SDS011;34921;52.320;16.142;2023-02-12T06:04:44;24.43;;;10.17;;
49109;SDS011;34921;52.320;16.142;2023-02-12T06:07:12;17.82;;;9.38;;
49109;SDS011;34921;52.320;16.142;2023-02-12T06:09:40;14.45;;;9.28;;
49109;SDS011;34921;52.320;16.142;2023-02-12T06:12:07;22.15;;;10.55;;
49109;SDS011;34921;52.320;16.142;2023-02-12T06:14:35;20.20;;;9.18;;
49109;SDS011;34921;52.320;16.142;2023-02-12T06:17:03;20.90;;;11.48;;
49109;SDS011;34921;52.320;16.142;2023-02-12T06:19:31;21.33;;;11.57;;
49109;SDS011;34921;52.320;16.142;2023-02-12T06:21:59;23.32;;;12.88;;
49109;SDS011;34921;52.320;16.142;2023-02-12T06:24:28;24.98;;;13.05;;
49109;SDS011;34921;52.320;16.142;2023-02-12T06:26:56;27.32;;;13.88;;
49109;SDS011;34921;52.320;16.142;2023-02-12T06:29:24;36.70;;;19.70;;
49109;SDS011;34921;52.320;16.142;2023-02-12T06:31:52;35.92;;;17.77;;
49109;SDS011;34921;52.320;16.142;2023-02-12T06:34:20;33.05;;;13.85;;
49109;SDS011;34921;52.320;16.142;2023-02-12T06:36:48;28.23;;;14.37;;
49109;SDS011;34921;52.320;16.142;2023-02-12T06:39:16;29.72;;;14.03;;
49109;SDS011;34921;52.320;16.142;2023-02-12T06:41:44;24.10;;;11.75;;
49109;SDS011;34921;52.320;16.142;2023-02-12T06:44:12;20.37;;;10.88;;
49109;SDS011;34921;52.320;16.142;2023-02-12T06:46:40;20.88;;;10.78;;
49109;SDS011;34921;52.320;16.142;2023-02-12T06:49:09;22.90;;;11.60;;
49109;SDS011;34921;52.320;16.142;2023-02-12T06:54:11;27.58;;;12.50;;
49109;SDS011;34921;52.320;16.142;2023-02-12T06:56:41;25.77;;;10.85;;
49109;SDS011;34921;52.320;16.142;2023-02-12T06:59:11;18.67;;;10.40;;
49109;SDS011;34921;52.320;16.142;2023-02-12T07:01:44;19.00;;;10.30;;
49109;SDS011;34921;52.320;16.142;2023-02-12T07:04:12;20.20;;;11.05;;
49109;SDS011;34921;52.320;16.142;2023-02-12T07:06:41;20.50;;;11.43;;
49109;SDS011;34921;52.320;16.142;2023-02-12T07:09:09;21.12;;;10.98;;
49109;SDS011;34921;52.320;16.142;2023-02-12T07:11:37;21.12;;;10.43;;
49109;SDS011;34921;52.320;16.142;2023-02-12T07:14:05;25.52;;;11.63;;
49109;SDS011;34921;52.320;16.142;2023-02-12T07:16:33;31.40;;;13.30;;
49109;SDS011;34921;52.320;16.142;2023-02-12T07:19:01;52.38;;;20.65;;
49109;SDS011;34921;52.320;16.142;2023-02-12T07:21:29;53.83;;;25.80;;
49109;SDS011;34921;52.320;16.142;2023-02-12T07:23:58;54.53;;;24.90;;
49109;SDS011;34921;52.320;16.142;2023-02-12T07:26:26;54.40;;;29.87;;
49109;SDS011;34921;52.320;16.142;2023-02-12T07:28:55;48.35;;;22.62;;
49109;SDS011;34921;52.320;16.142;2023-02-12T07:31:25;43.75;;;22.90;;
49109;SDS011;34921;52.320;16.142;2023-02-12T07:33:53;38.67;;;19.52;;
49109;SDS011;34921;52.320;16.142;2023-02-12T07:36:23;51.23;;;25.88;;
49109;SDS011;34921;52.320;16.142;2023-02-12T07:38:52;49.55;;;25.15;;
49109;SDS011;34921;52.320;16.142;2023-02-12T07:41:22;48.02;;;24.18;;
49109;SDS011;34921;52.320;16.142;2023-02-12T07:43:54;56.88;;;24.07;;
49109;SDS011;34921;52.320;16.142;2023-02-12T07:46:25;94.37;;;34.23;;
49109;SDS011;34921;52.320;16.142;2023-02-12T07:48:58;84.85;;;32.08;;
49109;SDS011;34921;52.320;16.142;2023-02-12T07:53:55;38.00;;;17.45;;
49109;SDS011;34921;52.320;16.142;2023-02-12T07:56:25;39.75;;;20.08;;
49109;SDS011;34921;52.320;16.142;2023-02-12T07:58:59;41.42;;;18.02;;
49109;SDS011;34921;52.320;16.142;2023-02-12T08:04:06;60.33;;;24.10;;
49109;SDS011;34921;52.320;16.142;2023-02-12T08:06:40;58.23;;;23.77;;
49109;SDS011;34921;52.320;16.142;2023-02-12T08:09:12;51.30;;;21.05;;
49109;SDS011;34921;52.320;16.142;2023-02-12T08:11:42;42.93;;;20.15;;
49109;SDS011;34921;52.320;16.142;2023-02-12T08:14:11;37.35;;;19.15;;
49109;SDS011;34921;52.320;16.142;2023-02-12T08:16:44;41.45;;;19.35;;
49109;SDS011;34921;52.320;16.142;2023-02-12T08:19:13;57.27;;;34.85;;
49109;SDS011;34921;52.320;16.142;2023-02-12T08:21:41;61.83;;;32.10;;
49109;SDS011;34921;52.320;16.142;2023-02-12T08:24:10;48.15;;;22.37;;
49109;SDS011;34921;52.320;16.142;2023-02-12T08:26:38;60.60;;;25.52;;
49109;SDS011;34921;52.320;16.142;2023-02-12T08:29:07;55.33;;;24.27;;
49109;SDS011;34921;52.320;16.142;2023-02-12T08:31:38;54.67;;;25.50;;
49109;SDS011;34921;52.320;16.142;2023-02-12T08:34:18;36.13;;;15.60;;
49109;SDS011;34921;52.320;16.142;2023-02-12T08:36:49;42.30;;;18.20;;
49109;SDS011;34921;52.320;16.142;2023-02-12T08:39:18;55.35;;;23.67;;
49109;SDS011;34921;52.320;16.142;2023-02-12T08:41:47;71.22;;;24.80;;
49109;SDS011;34921;52.320;16.142;2023-02-12T08:44:16;57.43;;;25.72;;
49109;SDS011;34921;52.320;16.142;2023-02-12T08:46:46;49.40;;;23.15;;
49109;SDS011;34921;52.320;16.142;2023-02-12T08:49:17;39.33;;;16.70;;
49109;SDS011;34921;52.320;16.142;2023-02-12T08:51:51;36.05;;;15.25;;
49109;SDS011;34921;52.320;16.142;2023-02-12T08:54:25;35.13;;;15.10;;
49109;SDS011;34921;52.320;16.142;2023-02-12T08:56:58;29.10;;;13.18;;
49109;SDS011;34921;52.320;16.142;2023-02-12T08:59:28;29.40;;;11.95;;
49109;SDS011;34921;52.320;16.142;2023-02-12T09:01:56;27.07;;;11.85;;
49109;SDS011;34921;52.320;16.142;2023-02-12T09:04:25;21.17;;;8.93;;
49109;SDS011;34921;52.320;16.142;2023-02-12T09:07:01;21.90;;;10.15;;
49109;SDS011;34921;52.320;16.142;2023-02-12T09:09:28;44.00;;;17.17;;
49109;SDS011;34921;52.320;16.142;2023-02-12T09:11:56;28.20;;;11.65;;
49109;SDS011;34921;52.320;16.142;2023-02-12T09:14:24;29.02;;;11.55;;
49109;SDS011;34921;52.320;16.142;2023-02-12T09:16:53;28.57;;;11.28;;
49109;SDS011;34921;52.320;16.142;2023-02-12T09:19:24;33.88;;;13.75;;
49109;SDS011;34921;52.320;16.142;2023-02-12T09:21:53;33.28;;;13.25;;
49109;SDS011;34921;52.320;16.142;2023-02-12T09:24:22;30.97;;;11.78;;
49109;SDS011;34921;52.320;16.142;2023-02-12T09:26:51;29.20;;;12.30;;
49109;SDS011;34921;52.320;16.142;2023-02-12T09:29:19;19.55;;;8.73;;
49109;SDS011;34921;52.320;16.142;2023-02-12T09:31:47;22.58;;;10.20;;
49109;SDS011;34921;52.320;16.142;2023-02-12T09:34:15;25.35;;;9.65;;
49109;SDS011;34921;52.320;16.142;2023-02-12T09:36:43;26.85;;;11.18;;
49109;SDS011;34921;52.320;16.142;2023-02-12T09:39:11;22.05;;;9.30;;
49109;SDS011;34921;52.320;16.142;2023-02-12T09:41:45;21.30;;;8.28;;
49109;SDS011;34921;52.320;16.142;2023-02-12T09:50:11;18.07;;;9.08;;
49109;SDS011;34921;52.320;16.142;2023-02-12T09:52:54;30.83;;;11.87;;
49109;SDS011;34921;52.320;16.142;2023-02-12T09:55:26;28.35;;;16.30;;
49109;SDS011;34921;52.320;16.142;2023-02-12T09:57:57;28.38;;;18.25;;
49109;SDS011;34921;52.320;16.142;2023-02-12T10:00:26;29.02;;;13.80;;
49109;SDS011;34921;52.320;16.142;2023-02-12T10:05:31;30.52;;;14.03;;
49109;SDS011;34921;52.320;16.142;2023-02-12T10:11:06;21.95;;;10.43;;
49109;SDS011;34921;52.320;16.142;2023-02-12T10:16:42;25.52;;;11.95;;
49109;SDS011;34921;52.320;16.142;2023-02-12T10:22:16;31.82;;;14.38;;
49109;SDS011;34921;52.320;16.142;2023-02-12T10:24:56;30.43;;;16.03;;
49109;SDS011;34921;52.320;16.142;2023-02-12T10:27:39;30.08;;;13.20;;
49109;SDS011;34921;52.320;16.142;2023-02-12T10:32:50;32.25;;;14.75;;
49109;SDS011;34921;52.320;16.142;2023-02-12T10:35:21;34.27;;;17.77;;
49109;SDS011;34921;52.320;16.142;2023-02-12T10:40:49;36.00;;;19.17;;
49109;SDS011;34921;52.320;16.142;2023-02-12T10:43:17;45.48;;;21.62;;
49109;SDS011;34921;52.320;16.142;2023-02-12T10:45:45;35.40;;;16.02;;
49109;SDS011;34921;52.320;16.142;2023-02-12T10:58:55;29.07;;;18.17;;
49109;SDS011;34921;52.320;16.142;2023-02-12T11:01:30;30.02;;;14.73;;
49109;SDS011;34921;52.320;16.142;2023-02-12T11:04:17;35.23;;;14.05;;
49109;SDS011;34921;52.320;16.142;2023-02-12T11:07:00;36.03;;;15.03;;
49109;SDS011;34921;52.320;16.142;2023-02-12T11:09:37;54.70;;;27.17;;
49109;SDS011;34921;52.320;16.142;2023-02-12T11:14:59;93.47;;;62.43;;
49109;SDS011;34921;52.320;16.142;2023-02-12T11:22:30;49.98;;;22.77;;
49109;SDS011;34921;52.320;16.142;2023-02-12T11:25:00;46.80;;;18.77;;
49109;SDS011;34921;52.320;16.142;2023-02-12T11:27:30;64.90;;;30.05;;
49109;SDS011;34921;52.320;16.142;2023-02-12T11:30:12;167.93;;;65.65;;
49109;SDS011;34921;52.320;16.142;2023-02-12T11:32:41;335.68;;;137.82;;
49109;SDS011;34921;52.320;16.142;2023-02-12T11:35:15;393.17;;;162.43;;
49109;SDS011;34921;52.320;16.142;2023-02-12T11:37:53;436.82;;;187.62;;
49109;SDS011;34921;52.320;16.142;2023-02-12T11:43:02;287.15;;;113.75;;
49109;SDS011;34921;52.320;16.142;2023-02-12T11:45:36;133.78;;;52.85;;
49109;SDS011;34921;52.320;16.142;2023-02-12T11:50:57;67.72;;;28.87;;
49109;SDS011;34921;52.320;16.142;2023-02-12T11:53:29;102.07;;;41.55;;
49109;SDS011;34921;52.320;16.142;2023-02-12T11:56:10;263.32;;;98.35;;
49109;SDS011;34921;52.320;16.142;2023-02-12T11:58:39;386.23;;;159.80;;
49109;SDS011;34921;52.320;16.142;2023-02-12T12:06:41;180.00;;;87.45;;
49109;SDS011;34921;52.320;16.142;2023-02-12T12:15:03;101.87;;;49.30;;
49109;SDS011;34921;52.320;16.142;2023-02-12T12:17:54;65.83;;;33.60;;
49109;SDS011;34921;52.320;16.142;2023-02-12T12:20:48;57.13;;;29.27;;
49109;SDS011;34921;52.320;16.142;2023-02-12T12:23:28;45.98;;;25.32;;
49109;SDS011;34921;52.320;16.142;2023-02-12T12:26:17;51.33;;;25.68;;
49109;SDS011;34921;52.320;16.142;2023-02-12T12:32:16;38.67;;;18.80;;
49109;SDS011;34921;52.320;16.142;2023-02-12T12:34:37;36.68;;;17.55;;
49109;SDS011;34921;52.320;16.142;2023-02-12T13:02:48;89.07;;;44.18;;
49109;SDS011;34921;52.320;16.142;2023-02-12T13:11:15;72.35;;;34.67;;
49109;SDS011;34921;52.320;16.142;2023-02-12T13:16:59;49.88;;;19.92;;
49109;SDS011;34921;52.320;16.142;2023-02-12T13:27:58;172.43;;;87.57;;
49109;SDS011;34921;52.320;16.142;2023-02-12T13:30:37;141.93;;;66.33;;
49109;SDS011;34921;52.320;16.142;2023-02-12T13:35:48;29.82;;;13.32;;
49109;SDS011;34921;52.320;16.142;2023-02-12T13:38:33;25.62;;;11.48;;
49109;SDS011;34921;52.320;16.142;2023-02-12T13:41:06;43.78;;;20.70;;
49109;SDS011;34921;52.320;16.142;2023-02-12T13:54:56;90.72;;;40.10;;
49109;SDS011;34921;52.320;16.142;2023-02-12T13:57:36;69.15;;;34.30;;
49109;SDS011;34921;52.320;16.142;2023-02-12T14:00:05;36.30;;;15.48;;
49109;SDS011;34921;52.320;16.142;2023-02-12T14:03:11;84.83;;;30.75;;
49109;SDS011;34921;52.320;16.142;2023-02-12T14:05:40;57.98;;;22.27;;
49109;SDS011;34921;52.320;16.142;2023-02-12T14:08:32;123.60;;;50.33;;
49109;SDS011;34921;52.320;16.142;2023-02-12T14:11:21;110.60;;;43.92;;
49109;SDS011;34921;52.320;16.142;2023-02-12T14:13:52;68.33;;;27.80;;
49109;SDS011;34921;52.320;16.142;2023-02-12T14:22:10;59.87;;;17.10;;
49109;SDS011;34921;52.320;16.142;2023-02-12T14:24:46;48.40;;;16.62;;
49109;SDS011;34921;52.320;16.142;2023-02-12T14:27:24;43.87;;;12.85;;
49109;SDS011;34921;52.320;16.142;2023-02-12T14:35:31;47.03;;;14.05;;
49109;SDS011;34921;52.320;16.142;2023-02-12T14:38:06;37.83;;;14.05;;
49109;SDS011;34921;52.320;16.142;2023-02-12T14:40:48;42.85;;;15.58;;
49109;SDS011;34921;52.320;16.142;2023-02-12T14:53:49;40.03;;;16.03;;
49109;SDS011;34921;52.320;16.142;2023-02-12T14:56:20;155.87;;;62.45;;
49109;SDS011;34921;52.320;16.142;2023-02-12T14:58:51;147.17;;;50.40;;
49109;SDS011;34921;52.320;16.142;2023-02-12T15:01:25;78.70;;;31.75;;
49109;SDS011;34921;52.320;16.142;2023-02-12T15:03:59;121.35;;;41.48;;
49109;SDS011;34921;52.320;16.142;2023-02-12T15:06:55;74.80;;;30.70;;
49109;SDS011;34921;52.320;16.142;2023-02-12T15:09:33;559.90;;;155.55;;
49109;SDS011;34921;52.320;16.142;2023-02-12T15:12:10;271.80;;;71.22;;
49109;SDS011;34921;52.320;16.142;2023-02-12T15:14:44;123.72;;;33.92;;
49109;SDS011;34921;52.320;16.142;2023-02-12T15:17:40;190.18;;;58.55;;
49109;SDS011;34921;52.320;16.142;2023-02-12T15:22:47;72.30;;;30.08;;
49109;SDS011;34921;52.320;16.142;2023-02-12T15:27:45;93.90;;;42.23;;
49109;SDS011;34921;52.320;16.142;2023-02-12T15:30:16;92.23;;;38.17;;
49109;SDS011;34921;52.320;16.142;2023-02-12T15:32:47;95.28;;;36.17;;
49109;SDS011;34921;52.320;16.142;2023-02-12T15:35:20;52.15;;;21.60;;
49109;SDS011;34921;52.320;16.142;2023-02-12T15:37:56;51.13;;;24.10;;
49109;SDS011;34921;52.320;16.142;2023-02-12T15:40:31;76.53;;;28.25;;
49109;SDS011;34921;52.320;16.142;2023-02-12T15:43:04;61.60;;;33.48;;
49109;SDS011;34921;52.320;16.142;2023-02-12T15:45:34;76.40;;;40.88;;
49109;SDS011;34921;52.320;16.142;2023-02-12T15:50:44;91.50;;;53.08;;
49109;SDS011;34921;52.320;16.142;2023-02-12T15:53:18;114.67;;;58.87;;
49109;SDS011;34921;52.320;16.142;2023-02-12T15:55:47;112.52;;;54.90;;
49109;SDS011;34921;52.320;16.142;2023-02-12T15:58:18;174.87;;;73.73;;
49109;SDS011;34921;52.320;16.142;2023-02-12T16:00:47;59.20;;;29.42;;
49109;SDS011;34921;52.320;16.142;2023-02-12T16:03:22;75.65;;;35.78;;
49109;SDS011;34921;52.320;16.142;2023-02-12T16:05:54;61.18;;;33.65;;
49109;SDS011;34921;52.320;16.142;2023-02-12T16:08:24;61.13;;;32.48;;
49109;SDS011;34921;52.320;16.142;2023-02-12T16:10:53;38.60;;;18.40;;
49109;SDS011;34921;52.320;16.142;2023-02-12T16:13:32;44.67;;;18.90;;
49109;SDS011;34921;52.320;16.142;2023-02-12T16:16:06;53.17;;;26.70;;
49109;SDS011;34921;52.320;16.142;2023-02-12T16:18:45;45.98;;;15.00;;
49109;SDS011;34921;52.320;16.142;2023-02-12T16:21:17;49.15;;;23.07;;
49109;SDS011;34921;52.320;16.142;2023-02-12T16:23:47;60.83;;;26.70;;
49109;SDS011;34921;52.320;16.142;2023-02-12T16:26:24;69.50;;;32.98;;
49109;SDS011;34921;52.320;16.142;2023-02-12T16:28:54;65.23;;;36.17;;
49109;SDS011;34921;52.320;16.142;2023-02-12T16:31:24;52.15;;;32.98;;
49109;SDS011;34921;52.320;16.142;2023-02-12T16:33:54;51.77;;;29.95;;
49109;SDS011;34921;52.320;16.142;2023-02-12T16:38:56;50.70;;;25.30;;
49109;SDS011;34921;52.320;16.142;2023-02-12T16:41:27;46.70;;;23.33;;
49109;SDS011;34921;52.320;16.142;2023-02-12T16:46:28;48.15;;;26.42;;
49109;SDS011;34921;52.320;16.142;2023-02-12T16:49:00;49.27;;;24.30;;
49109;SDS011;34921;52.320;16.142;2023-02-12T16:51:30;50.85;;;26.35;;
49109;SDS011;34921;52.320;16.142;2023-02-12T16:54:02;43.13;;;21.85;;
49109;SDS011;34921;52.320;16.142;2023-02-12T16:56:33;48.63;;;24.47;;
49109;SDS011;34921;52.320;16.142;2023-02-12T16:59:05;79.25;;;39.83;;
49109;SDS011;34921;52.320;16.142;2023-02-12T17:01:34;79.72;;;39.35;;
49109;SDS011;34921;52.320;16.142;2023-02-12T17:04:05;85.20;;;47.27;;
49109;SDS011;34921;52.320;16.142;2023-02-12T17:06:34;62.65;;;35.17;;
49109;SDS011;34921;52.320;16.142;2023-02-12T17:09:02;74.85;;;40.58;;
49109;SDS011;34921;52.320;16.142;2023-02-12T17:11:30;84.03;;;44.83;;
49109;SDS011;34921;52.320;16.142;2023-02-12T17:13:59;123.30;;;65.72;;
49109;SDS011;34921;52.320;16.142;2023-02-12T17:16:28;134.47;;;72.20;;
49109;SDS011;34921;52.320;16.142;2023-02-12T17:18:56;129.63;;;64.20;;
49109;SDS011;34921;52.320;16.142;2023-02-12T17:23:55;69.27;;;34.03;;
49109;SDS011;34921;52.320;16.142;2023-02-12T17:26:23;59.77;;;31.03;;
49109;SDS011;34921;52.320;16.142;2023-02-12T17:28:53;150.47;;;85.77;;
49109;SDS011;34921;52.320;16.142;2023-02-12T17:31:21;176.90;;;99.03;;
49109;SDS011;34921;52.320;16.142;2023-02-12T17:33:50;129.42;;;66.60;;
49109;SDS011;34921;52.320;16.142;2023-02-12T17:36:18;84.32;;;41.63;;
49109;SDS011;34921;52.320;16.142;2023-02-12T17:38:47;93.30;;;44.47;;
49109;SDS011;34921;52.320;16.142;2023-02-12T17:41:15;121.75;;;53.75;;
49109;SDS011;34921;52.320;16.142;2023-02-12T17:43:43;126.37;;;54.97;;
49109;SDS011;34921;52.320;16.142;2023-02-12T17:46:12;72.27;;;33.58;;
49109;SDS011;34921;52.320;16.142;2023-02-12T17:48:47;81.00;;;35.93;;
49109;SDS011;34921;52.320;16.142;2023-02-12T17:51:16;83.07;;;39.23;;
49109;SDS011;34921;52.320;16.142;2023-02-12T17:53:44;72.05;;;34.20;;
49109;SDS011;34921;52.320;16.142;2023-02-12T17:56:17;66.40;;;34.50;;
49109;SDS011;34921;52.320;16.142;2023-02-12T17:58:47;92.77;;;52.33;;
49109;SDS011;34921;52.320;16.142;2023-02-12T18:01:16;68.02;;;33.42;;
49109;SDS011;34921;52.320;16.142;2023-02-12T18:03:46;58.13;;;25.77;;
49109;SDS011;34921;52.320;16.142;2023-02-12T18:06:17;51.73;;;21.73;;
49109;SDS011;34921;52.320;16.142;2023-02-12T18:08:48;55.03;;;27.25;;
49109;SDS011;34921;52.320;16.142;2023-02-12T18:11:17;64.30;;;35.40;;
49109;SDS011;34921;52.320;16.142;2023-02-12T18:13:46;75.53;;;33.83;;
49109;SDS011;34921;52.320;16.142;2023-02-12T18:16:15;83.17;;;33.30;;
49109;SDS011;34921;52.320;16.142;2023-02-12T18:18:43;67.27;;;26.80;;